Terminal Aerodrome Forecast
Issued by NWS Memphis, TN

Home | Current Version | Previous Version | Text Only | Print | Product List | Glossary On
Versions: 1 2 3 4 5 6 7 8 9 10 11 12 13 14 15 16 17 18 19 20 21 22 23 24 25 26 27 28 29
000
FTUS44 KMEG 251730
TAFMEM
TAF
KMEM 251730Z 2518/2618 22015G25KT P6SM SCT025
      TEMPO 2518/2519 BKN013
     FM260000 25006KT P6SM SKC
     FM261000 33010KT P6SM BKN012
      TEMPO 2610/2614 OVC006
     FM261400 02009KT P6SM BKN015
     FM261600 02009KT P6SM BKN025=

USA.gov is the U.S. government's official web portal to all federal, state and local government web resources and services.